ALZ weather

Alitak Seaplane Base
Lazy Bay, Alaska, United States

Public forecast

Using degrees Fahrenheit for public forecast. Weather courtesy of forecast.io.

METAR (pilot weather report)

Closest report is Akhiok Airport, 3.2 nm (5.9 km) NE. Retrieved 2019/09/15 03:56 UTC (36 minutes ago):

PAKH 150356Z AUTO 29005KT CLR 14/10 A2998 RMK AO2 SLP153 T01390100 PWINO $

TAF (pilot weather forecast)

Forecast is more than 12 hours old.

Closest forecast is Kodiak Airport, 76.4 nm (141.5 km) NE. Retrieved 2019/09/14 00:42 UTC (1 day ago):

TAF PADQ 142340Z 1500/1524 29012G20KT P6SM FEW200 FM150800 26005KT P6SM SCT050 BKN100 FM151500 16007KT P6SM -RA SCT020 OVC035 FM151800 15010KT 4SM -RA BR BKN010 OVC025 FM152200 25010G20KT P6SM -SHRA BKN030 BKN050